sensor_id;sensor_type;location;lat;lon;timestamp;pressure;altitude;pressure_sealevel;temperature;humidity
86402;BME280;77047;51.340;9.552;2024-03-17T00:01:24;99469.55;;;5.10;37.16
86402;BME280;77047;51.340;9.552;2024-03-17T00:03:50;99468.86;;;5.06;37.16
86402;BME280;77047;51.340;9.552;2024-03-17T00:06:15;99470.84;;;4.97;37.20
86402;BME280;77047;51.340;9.552;2024-03-17T00:08:41;99470.36;;;5.37;37.18
86402;BME280;77047;51.340;9.552;2024-03-17T00:11:07;99472.76;;;4.83;37.15
86402;BME280;77047;51.340;9.552;2024-03-17T00:13:32;99474.61;;;4.80;37.28
86402;BME280;77047;51.340;9.552;2024-03-17T00:15:58;99471.43;;;4.76;37.30
86402;BME280;77047;51.340;9.552;2024-03-17T00:18:24;99472.27;;;4.88;37.23
86402;BME280;77047;51.340;9.552;2024-03-17T00:20:49;99472.25;;;4.82;37.16
86402;BME280;77047;51.340;9.552;2024-03-17T00:23:15;99470.47;;;5.16;37.16
86402;BME280;77047;51.340;9.552;2024-03-17T00:25:40;99472.87;;;4.96;37.26
86402;BME280;77047;51.340;9.552;2024-03-17T00:28:06;99472.25;;;4.45;37.17
86402;BME280;77047;51.340;9.552;2024-03-17T00:30:32;99475.31;;;4.80;37.20
86402;BME280;77047;51.340;9.552;2024-03-17T00:32:58;99473.91;;;4.14;37.17
86402;BME280;77047;51.340;9.552;2024-03-17T00:35:23;99473.02;;;4.38;37.33
86402;BME280;77047;51.340;9.552;2024-03-17T00:37:49;99475.23;;;3.79;37.49
86402;BME280;77047;51.340;9.552;2024-03-17T00:40:14;99476.14;;;4.17;37.68
86402;BME280;77047;51.340;9.552;2024-03-17T00:42:40;99473.03;;;4.19;37.68
86402;BME280;77047;51.340;9.552;2024-03-17T00:45:05;99469.82;;;3.81;37.64
86402;BME280;77047;51.340;9.552;2024-03-17T00:47:31;99465.73;;;4.24;37.54
86402;BME280;77047;51.340;9.552;2024-03-17T00:49:57;99466.48;;;3.86;37.60
86402;BME280;77047;51.340;9.552;2024-03-17T00:52:23;99461.07;;;4.31;37.46
86402;BME280;77047;51.340;9.552;2024-03-17T00:54:48;99464.39;;;4.28;37.42
86402;BME280;77047;51.340;9.552;2024-03-17T00:57:14;99467.46;;;4.19;37.45
86402;BME280;77047;51.340;9.552;2024-03-17T00:59:39;99467.30;;;4.09;37.46
86402;BME280;77047;51.340;9.552;2024-03-17T01:02:05;99464.50;;;4.02;37.45
86402;BME280;77047;51.340;9.552;2024-03-17T01:04:31;99467.16;;;3.92;37.45
86402;BME280;77047;51.340;9.552;2024-03-17T01:06:57;99464.87;;;3.74;37.36
86402;BME280;77047;51.340;9.552;2024-03-17T01:09:22;99468.83;;;3.58;37.56
86402;BME280;77047;51.340;9.552;2024-03-17T01:11:48;99468.84;;;3.93;37.77
86402;BME280;77047;51.340;9.552;2024-03-17T01:14:13;99466.99;;;3.47;37.78
86402;BME280;77047;51.340;9.552;2024-03-17T01:16:39;99462.21;;;3.47;37.69
86402;BME280;77047;51.340;9.552;2024-03-17T01:19:05;99459.42;;;3.83;37.69
86402;BME280;77047;51.340;9.552;2024-03-17T01:21:30;99459.62;;;3.34;37.68
86402;BME280;77047;51.340;9.552;2024-03-17T01:23:57;99455.60;;;2.82;37.54
86402;BME280;77047;51.340;9.552;2024-03-17T01:26:22;99449.83;;;3.18;37.65
86402;BME280;77047;51.340;9.552;2024-03-17T01:28:47;99447.82;;;3.58;37.85
86402;BME280;77047;51.340;9.552;2024-03-17T01:31:13;99445.32;;;3.61;37.86
86402;BME280;77047;51.340;9.552;2024-03-17T01:33:40;99444.83;;;3.61;37.83
86402;BME280;77047;51.340;9.552;2024-03-17T01:36:04;99446.75;;;3.17;37.75
86402;BME280;77047;51.340;9.552;2024-03-17T01:38:30;99449.84;;;3.60;37.70
86402;BME280;77047;51.340;9.552;2024-03-17T01:40:56;99445.95;;;4.06;37.71
86402;BME280;77047;51.340;9.552;2024-03-17T01:43:21;99444.76;;;4.11;37.64
86402;BME280;77047;51.340;9.552;2024-03-17T01:45:47;99441.94;;;3.16;37.67
86402;BME280;77047;51.340;9.552;2024-03-17T01:48:14;99439.08;;;3.19;37.68
86402;BME280;77047;51.340;9.552;2024-03-17T01:50:39;99436.86;;;3.06;37.68
86402;BME280;77047;51.340;9.552;2024-03-17T01:53:06;99435.91;;;3.86;37.47
86402;BME280;77047;51.340;9.552;2024-03-17T01:55:31;99437.58;;;3.72;37.71
86402;BME280;77047;51.340;9.552;2024-03-17T01:57:56;99436.26;;;2.75;37.74
86402;BME280;77047;51.340;9.552;2024-03-17T02:00:21;99433.44;;;3.15;37.82
86402;BME280;77047;51.340;9.552;2024-03-17T02:02:47;99429.73;;;3.50;37.69
86402;BME280;77047;51.340;9.552;2024-03-17T02:05:12;99427.91;;;3.47;37.76
86402;BME280;77047;51.340;9.552;2024-03-17T02:07:38;99427.61;;;3.32;37.97
86402;BME280;77047;51.340;9.552;2024-03-17T02:10:04;99423.90;;;2.81;38.00
86402;BME280;77047;51.340;9.552;2024-03-17T02:12:29;99419.64;;;3.21;37.91
86402;BME280;77047;51.340;9.552;2024-03-17T02:14:55;99417.48;;;3.07;37.93
86402;BME280;77047;51.340;9.552;2024-03-17T02:17:21;99415.19;;;3.03;38.13
86402;BME280;77047;51.340;9.552;2024-03-17T02:19:46;99410.23;;;3.08;38.20
86402;BME280;77047;51.340;9.552;2024-03-17T02:22:13;99407.12;;;3.61;38.24
86402;BME280;77047;51.340;9.552;2024-03-17T02:24:37;99403.20;;;3.25;38.18
86402;BME280;77047;51.340;9.552;2024-03-17T02:27:03;99400.73;;;3.22;38.01
86402;BME280;77047;51.340;9.552;2024-03-17T02:29:29;99399.11;;;3.62;38.03
86402;BME280;77047;51.340;9.552;2024-03-17T02:31:55;99398.59;;;2.70;38.08
86402;BME280;77047;51.340;9.552;2024-03-17T02:34:21;99394.91;;;3.06;38.08
86402;BME280;77047;51.340;9.552;2024-03-17T02:36:46;99389.67;;;3.00;38.13
86402;BME280;77047;51.340;9.552;2024-03-17T02:39:12;99389.84;;;2.87;38.13
86402;BME280;77047;51.340;9.552;2024-03-17T02:41:37;99388.78;;;2.45;38.30
86402;BME280;77047;51.340;9.552;2024-03-17T02:44:03;99390.58;;;2.90;38.30
86402;BME280;77047;51.340;9.552;2024-03-17T02:46:30;99393.60;;;3.40;38.40
86402;BME280;77047;51.340;9.552;2024-03-17T02:48:54;99393.71;;;2.95;38.28
86402;BME280;77047;51.340;9.552;2024-03-17T02:51:21;99392.40;;;2.98;38.32
86402;BME280;77047;51.340;9.552;2024-03-17T02:53:48;99395.49;;;2.98;38.27
86402;BME280;77047;51.340;9.552;2024-03-17T02:56:13;99392.16;;;3.00;38.26
86402;BME280;77047;51.340;9.552;2024-03-17T02:58:38;99390.03;;;2.73;38.25
86402;BME280;77047;51.340;9.552;2024-03-17T03:01:03;99386.00;;;3.17;38.28
86402;BME280;77047;51.340;9.552;2024-03-17T03:03:29;99384.23;;;3.16;38.30
86402;BME280;77047;51.340;9.552;2024-03-17T03:05:54;99387.11;;;3.15;38.35
86402;BME280;77047;51.340;9.552;2024-03-17T03:08:20;99391.08;;;3.19;38.33
86402;BME280;77047;51.340;9.552;2024-03-17T03:10:46;99390.29;;;3.13;38.09
86402;BME280;77047;51.340;9.552;2024-03-17T03:13:11;99392.40;;;3.06;38.36
86402;BME280;77047;51.340;9.552;2024-03-17T03:15:37;99393.82;;;2.80;38.44
86402;BME280;77047;51.340;9.552;2024-03-17T03:18:03;99398.02;;;2.67;38.53
86402;BME280;77047;51.340;9.552;2024-03-17T03:20:29;99402.07;;;3.10;38.57
86402;BME280;77047;51.340;9.552;2024-03-17T03:22:54;99398.08;;;2.51;38.47
86402;BME280;77047;51.340;9.552;2024-03-17T03:25:20;99395.20;;;2.60;38.47
86402;BME280;77047;51.340;9.552;2024-03-17T03:27:46;99388.16;;;3.09;38.56
86402;BME280;77047;51.340;9.552;2024-03-17T03:30:12;99388.27;;;2.60;38.38
86402;BME280;77047;51.340;9.552;2024-03-17T03:32:37;99384.43;;;3.13;38.32
86402;BME280;77047;51.340;9.552;2024-03-17T03:35:04;99385.17;;;2.67;38.49
86402;BME280;77047;51.340;9.552;2024-03-17T03:37:29;99387.13;;;2.79;38.38
86402;BME280;77047;51.340;9.552;2024-03-17T03:39:54;99388.71;;;2.73;38.43
86402;BME280;77047;51.340;9.552;2024-03-17T03:42:20;99388.65;;;2.66;38.31
86402;BME280;77047;51.340;9.552;2024-03-17T03:44:46;99390.52;;;2.49;38.03
86402;BME280;77047;51.340;9.552;2024-03-17T03:47:11;99385.69;;;2.10;38.34
86402;BME280;77047;51.340;9.552;2024-03-17T03:49:37;99384.84;;;2.50;38.54
86402;BME280;77047;51.340;9.552;2024-03-17T03:52:03;99385.03;;;2.80;38.65
86402;BME280;77047;51.340;9.552;2024-03-17T03:54:29;99385.71;;;2.30;38.64
86402;BME280;77047;51.340;9.552;2024-03-17T03:56:54;99385.71;;;2.51;38.97
86402;BME280;77047;51.340;9.552;2024-03-17T03:59:20;99383.65;;;2.13;39.04
86402;BME280;77047;51.340;9.552;2024-03-17T04:01:47;99382.62;;;2.27;38.97
86402;BME280;77047;51.340;9.552;2024-03-17T04:04:11;99384.92;;;1.88;38.83
86402;BME280;77047;51.340;9.552;2024-03-17T04:06:37;99387.60;;;2.25;38.86
86402;BME280;77047;51.340;9.552;2024-03-17T04:09:03;99386.49;;;2.15;38.85
86402;BME280;77047;51.340;9.552;2024-03-17T04:11:28;99388.36;;;2.14;39.01
86402;BME280;77047;51.340;9.552;2024-03-17T04:13:54;99392.42;;;1.79;38.96
86402;BME280;77047;51.340;9.552;2024-03-17T04:16:19;99392.26;;;2.61;38.89
86402;BME280;77047;51.340;9.552;2024-03-17T04:18:45;99395.58;;;2.45;38.90
86402;BME280;77047;51.340;9.552;2024-03-17T04:21:11;99397.94;;;1.54;38.97
86402;BME280;77047;51.340;9.552;2024-03-17T04:23:36;99393.71;;;2.41;38.92
86402;BME280;77047;51.340;9.552;2024-03-17T04:26:03;99392.83;;;2.36;38.90
86402;BME280;77047;51.340;9.552;2024-03-17T04:28:28;99392.80;;;2.25;38.85
86402;BME280;77047;51.340;9.552;2024-03-17T04:33:20;99400.10;;;2.16;38.84
86402;BME280;77047;51.340;9.552;2024-03-17T04:35:45;99399.44;;;2.16;38.93
86402;BME280;77047;51.340;9.552;2024-03-17T04:38:11;99403.43;;;2.12;39.10
86402;BME280;77047;51.340;9.552;2024-03-17T04:40:40;99408.97;;;1.93;39.26
86402;BME280;77047;51.340;9.552;2024-03-17T04:43:02;99409.13;;;1.35;39.00
86402;BME280;77047;51.340;9.552;2024-03-17T04:45:28;99408.51;;;1.19;39.07
86402;BME280;77047;51.340;9.552;2024-03-17T04:47:54;99413.46;;;1.45;38.85
86402;BME280;77047;51.340;9.552;2024-03-17T04:50:20;99416.25;;;1.30;39.17
86402;BME280;77047;51.340;9.552;2024-03-17T04:52:45;99422.87;;;1.25;39.35
86402;BME280;77047;51.340;9.552;2024-03-17T04:55:11;99432.04;;;1.33;39.37
86402;BME280;77047;51.340;9.552;2024-03-17T04:57:37;99433.10;;;1.83;39.35
86402;BME280;77047;51.340;9.552;2024-03-17T05:00:03;99433.05;;;1.42;39.39
86402;BME280;77047;51.340;9.552;2024-03-17T05:02:28;99439.73;;;1.91;39.30
86402;BME280;77047;51.340;9.552;2024-03-17T05:04:54;99443.54;;;1.51;39.27
86402;BME280;77047;51.340;9.552;2024-03-17T05:07:20;99447.73;;;1.56;39.03
86402;BME280;77047;51.340;9.552;2024-03-17T05:09:45;99446.45;;;1.49;39.16
86402;BME280;77047;51.340;9.552;2024-03-17T05:12:11;99448.74;;;1.84;39.28
86402;BME280;77047;51.340;9.552;2024-03-17T05:14:37;99450.72;;;1.36;39.32
86402;BME280;77047;51.340;9.552;2024-03-17T05:17:03;99450.38;;;1.39;39.14
86402;BME280;77047;51.340;9.552;2024-03-17T05:19:29;99452.51;;;1.21;39.35
86402;BME280;77047;51.340;9.552;2024-03-17T05:21:54;99455.34;;;2.08;39.48
86402;BME280;77047;51.340;9.552;2024-03-17T05:24:20;99457.07;;;1.21;39.47
86402;BME280;77047;51.340;9.552;2024-03-17T05:26:46;99457.39;;;1.22;39.57
86402;BME280;77047;51.340;9.552;2024-03-17T05:29:12;99458.98;;;1.25;39.41
86402;BME280;77047;51.340;9.552;2024-03-17T05:31:38;99460.97;;;1.29;39.57
86402;BME280;77047;51.340;9.552;2024-03-17T05:34:03;99463.51;;;1.29;39.33
86402;BME280;77047;51.340;9.552;2024-03-17T05:36:29;99464.34;;;1.34;39.33
86402;BME280;77047;51.340;9.552;2024-03-17T05:38:55;99464.52;;;1.35;39.52
86402;BME280;77047;51.340;9.552;2024-03-17T05:41:21;99466.25;;;1.35;39.24
86402;BME280;77047;51.340;9.552;2024-03-17T05:43:47;99467.30;;;1.34;39.27
86402;BME280;77047;51.340;9.552;2024-03-17T05:46:12;99469.91;;;1.28;39.18
86402;BME280;77047;51.340;9.552;2024-03-17T05:48:39;99469.01;;;1.55;39.24
86402;BME280;77047;51.340;9.552;2024-03-17T05:51:04;99470.64;;;0.91;39.29
86402;BME280;77047;51.340;9.552;2024-03-17T05:53:30;99474.75;;;1.55;39.66
86402;BME280;77047;51.340;9.552;2024-03-17T05:55:55;99479.74;;;0.55;39.78
86402;BME280;77047;51.340;9.552;2024-03-17T05:58:21;99478.46;;;1.44;39.77
86402;BME280;77047;51.340;9.552;2024-03-17T06:00:47;99480.37;;;1.41;39.81
86402;BME280;77047;51.340;9.552;2024-03-17T06:03:12;99480.70;;;1.11;39.86
86402;BME280;77047;51.340;9.552;2024-03-17T06:05:40;99481.37;;;1.06;39.68
86402;BME280;77047;51.340;9.552;2024-03-17T06:08:05;99481.69;;;0.97;39.76
86402;BME280;77047;51.340;9.552;2024-03-17T06:10:31;99479.83;;;1.39;39.95
86402;BME280;77047;51.340;9.552;2024-03-17T06:12:56;99477.68;;;1.48;39.88
86402;BME280;77047;51.340;9.552;2024-03-17T06:15:21;99466.03;;;0.58;39.87
86402;BME280;77047;51.340;9.552;2024-03-17T06:17:47;99460.85;;;0.57;39.90
86402;BME280;77047;51.340;9.552;2024-03-17T06:20:13;99459.62;;;1.49;40.00
86402;BME280;77047;51.340;9.552;2024-03-17T06:22:39;99453.24;;;1.14;39.94
86402;BME280;77047;51.340;9.552;2024-03-17T06:25:05;99451.46;;;1.22;39.99
86402;BME280;77047;51.340;9.552;2024-03-17T06:27:30;99452.11;;;0.89;40.04
86402;BME280;77047;51.340;9.552;2024-03-17T06:29:56;99445.39;;;1.44;40.07
86402;BME280;77047;51.340;9.552;2024-03-17T06:32:22;99442.33;;;1.73;40.39
86402;BME280;77047;51.340;9.552;2024-03-17T06:34:47;99446.30;;;1.77;40.31
86402;BME280;77047;51.340;9.552;2024-03-17T06:37:13;99444.48;;;2.14;39.99
86402;BME280;77047;51.340;9.552;2024-03-17T06:39:40;99445.22;;;1.99;39.79
86402;BME280;77047;51.340;9.552;2024-03-17T06:42:05;99441.47;;;2.75;39.66
86402;BME280;77047;51.340;9.552;2024-03-17T06:44:31;99438.22;;;2.56;39.58
86402;BME280;77047;51.340;9.552;2024-03-17T06:46:56;99438.11;;;2.77;39.43
86402;BME280;77047;51.340;9.552;2024-03-17T06:49:22;99434.56;;;3.13;39.54
86402;BME280;77047;51.340;9.552;2024-03-17T06:51:47;99432.13;;;2.89;39.48
86402;BME280;77047;51.340;9.552;2024-03-17T06:54:13;99433.36;;;3.18;39.52
86402;BME280;77047;51.340;9.552;2024-03-17T06:56:39;99436.14;;;3.58;39.57
86402;BME280;77047;51.340;9.552;2024-03-17T06:59:04;99435.86;;;4.03;39.59
86402;BME280;77047;51.340;9.552;2024-03-17T07:01:30;99437.79;;;3.81;38.88
86402;BME280;77047;51.340;9.552;2024-03-17T07:03:56;99436.37;;;3.88;38.75
86402;BME280;77047;51.340;9.552;2024-03-17T07:06:21;99436.55;;;3.52;38.38
86402;BME280;77047;51.340;9.552;2024-03-17T07:08:48;99434.10;;;3.78;38.49
86402;BME280;77047;51.340;9.552;2024-03-17T07:11:13;99432.44;;;4.18;38.64
86402;BME280;77047;51.340;9.552;2024-03-17T07:13:39;99430.38;;;4.73;38.73
86402;BME280;77047;51.340;9.552;2024-03-17T07:16:05;99431.12;;;5.44;38.45
86402;BME280;77047;51.340;9.552;2024-03-17T07:18:30;99429.22;;;5.67;38.00
86402;BME280;77047;51.340;9.552;2024-03-17T07:20:57;99430.13;;;6.22;37.99
86402;BME280;77047;51.340;9.552;2024-03-17T07:23:21;99429.56;;;6.65;37.42
86402;BME280;77047;51.340;9.552;2024-03-17T07:25:52;99430.31;;;6.36;36.89
86402;BME280;77047;51.340;9.552;2024-03-17T07:28:12;99430.78;;;6.48;36.83
86402;BME280;77047;51.340;9.552;2024-03-17T07:30:44;99432.00;;;6.62;37.25
86402;BME280;77047;51.340;9.552;2024-03-17T07:33:03;99432.74;;;6.88;37.04
86402;BME280;77047;51.340;9.552;2024-03-17T07:35:29;99431.38;;;6.34;37.00
86402;BME280;77047;51.340;9.552;2024-03-17T07:37:54;99430.82;;;6.77;36.62
86402;BME280;77047;51.340;9.552;2024-03-17T07:40:20;99428.47;;;7.21;36.50
86402;BME280;77047;51.340;9.552;2024-03-17T07:42:46;99427.58;;;7.41;36.35
86402;BME280;77047;51.340;9.552;2024-03-17T07:45:11;99429.59;;;7.70;35.97
86402;BME280;77047;51.340;9.552;2024-03-17T07:47:37;99432.54;;;7.12;36.10
86402;BME280;77047;51.340;9.552;2024-03-17T07:50:03;99432.19;;;7.92;35.62
86402;BME280;77047;51.340;9.552;2024-03-17T07:52:28;99433.20;;;8.12;35.47
86402;BME280;77047;51.340;9.552;2024-03-17T07:54:53;99432.58;;;8.28;35.13
86402;BME280;77047;51.340;9.552;2024-03-17T07:57:19;99433.73;;;8.44;35.13
86402;BME280;77047;51.340;9.552;2024-03-17T07:59:45;99431.85;;;8.47;35.07
86402;BME280;77047;51.340;9.552;2024-03-17T08:02:10;99432.01;;;8.23;34.40
86402;BME280;77047;51.340;9.552;2024-03-17T08:04:35;99428.25;;;8.56;34.25
86402;BME280;77047;51.340;9.552;2024-03-17T08:07:00;99429.08;;;8.56;33.84
86402;BME280;77047;51.340;9.552;2024-03-17T08:09:26;99431.57;;;8.26;34.14
86402;BME280;77047;51.340;9.552;2024-03-17T08:11:52;99432.84;;;9.06;34.14
86402;BME280;77047;51.340;9.552;2024-03-17T08:14:17;99428.68;;;9.26;33.81
86402;BME280;77047;51.340;9.552;2024-03-17T08:16:42;99427.75;;;9.21;33.31
86402;BME280;77047;51.340;9.552;2024-03-17T08:19:09;99423.55;;;9.57;33.56
86402;BME280;77047;51.340;9.552;2024-03-17T08:21:34;99420.34;;;9.71;33.02
86402;BME280;77047;51.340;9.552;2024-03-17T08:23:59;99415.77;;;9.79;33.09
86402;BME280;77047;51.340;9.552;2024-03-17T08:26:25;99414.43;;;10.59;32.42
86402;BME280;77047;51.340;9.552;2024-03-17T08:28:50;99413.46;;;10.74;32.46
86402;BME280;77047;51.340;9.552;2024-03-17T08:31:16;99411.77;;;11.27;32.31
86402;BME280;77047;51.340;9.552;2024-03-17T08:33:42;99408.02;;;11.21;31.30
86402;BME280;77047;51.340;9.552;2024-03-17T08:36:08;99405.84;;;11.34;31.27
86402;BME280;77047;51.340;9.552;2024-03-17T08:38:33;99405.78;;;11.84;30.87
86402;BME280;77047;51.340;9.552;2024-03-17T08:41:02;99405.30;;;11.22;29.41
86402;BME280;77047;51.340;9.552;2024-03-17T08:43:24;99401.45;;;11.49;30.29
86402;BME280;77047;51.340;9.552;2024-03-17T08:45:55;99399.43;;;11.84;30.06
86402;BME280;77047;51.340;9.552;2024-03-17T08:48:14;99400.25;;;12.13;30.19
86402;BME280;77047;51.340;9.552;2024-03-17T08:50:40;99398.20;;;12.06;29.40
86402;BME280;77047;51.340;9.552;2024-03-17T08:53:05;99400.00;;;12.17;30.00
86402;BME280;77047;51.340;9.552;2024-03-17T08:55:31;99399.20;;;12.56;29.23
86402;BME280;77047;51.340;9.552;2024-03-17T08:57:56;99397.01;;;12.37;28.90
86402;BME280;77047;51.340;9.552;2024-03-17T09:00:22;99397.49;;;12.84;28.33
86402;BME280;77047;51.340;9.552;2024-03-17T09:02:47;99401.44;;;13.69;28.39
86402;BME280;77047;51.340;9.552;2024-03-17T09:05:13;99406.08;;;13.25;27.78
86402;BME280;77047;51.340;9.552;2024-03-17T09:07:38;99405.35;;;13.97;27.97
86402;BME280;77047;51.340;9.552;2024-03-17T09:10:04;99396.45;;;13.68;27.92
86402;BME280;77047;51.340;9.552;2024-03-17T09:12:28;99393.89;;;14.11;27.59
86402;BME280;77047;51.340;9.552;2024-03-17T09:14:54;99395.97;;;13.52;27.28
86402;BME280;77047;51.340;9.552;2024-03-17T09:17:19;99401.57;;;14.95;27.77
86402;BME280;77047;51.340;9.552;2024-03-17T09:19:45;99401.09;;;13.94;27.22
86402;BME280;77047;51.340;9.552;2024-03-17T09:22:10;99396.39;;;14.21;26.57
86402;BME280;77047;51.340;9.552;2024-03-17T09:24:36;99394.62;;;14.50;26.99
86402;BME280;77047;51.340;9.552;2024-03-17T09:27:01;99396.74;;;14.86;26.59
86402;BME280;77047;51.340;9.552;2024-03-17T09:29:26;99394.12;;;14.64;26.13
86402;BME280;77047;51.340;9.552;2024-03-17T09:31:51;99389.57;;;14.89;26.00
86402;BME280;77047;51.340;9.552;2024-03-17T09:34:17;99387.16;;;14.99;25.85
86402;BME280;77047;51.340;9.552;2024-03-17T09:36:42;99384.05;;;15.55;26.29
86402;BME280;77047;51.340;9.552;2024-03-17T09:39:08;99384.85;;;15.59;25.32
86402;BME280;77047;51.340;9.552;2024-03-17T09:41:33;99385.81;;;16.09;24.24
86402;BME280;77047;51.340;9.552;2024-03-17T09:43:58;99383.74;;;15.80;25.12
86402;BME280;77047;51.340;9.552;2024-03-17T09:46:24;99385.14;;;16.33;24.81
86402;BME280;77047;51.340;9.552;2024-03-17T09:48:49;99386.94;;;16.34;25.55
86402;BME280;77047;51.340;9.552;2024-03-17T09:51:18;99388.79;;;17.00;24.85
86402;BME280;77047;51.340;9.552;2024-03-17T09:53:39;99390.46;;;17.13;23.51
86402;BME280;77047;51.340;9.552;2024-03-17T09:56:09;99386.26;;;17.45;22.68
86402;BME280;77047;51.340;9.552;2024-03-17T09:58:30;99386.52;;;16.67;23.58
86402;BME280;77047;51.340;9.552;2024-03-17T10:00:56;99385.90;;;16.53;23.50
86402;BME280;77047;51.340;9.552;2024-03-17T10:05:46;99387.31;;;17.08;23.15
86402;BME280;77047;51.340;9.552;2024-03-17T10:08:20;99388.30;;;17.66;21.85
86402;BME280;77047;51.340;9.552;2024-03-17T10:10:37;99386.22;;;17.80;22.01
86402;BME280;77047;51.340;9.552;2024-03-17T10:13:02;99384.99;;;17.49;23.09
86402;BME280;77047;51.340;9.552;2024-03-17T10:15:28;99383.15;;;17.81;22.20
86402;BME280;77047;51.340;9.552;2024-03-17T10:17:53;99380.97;;;17.90;21.21
86402;BME280;77047;51.340;9.552;2024-03-17T10:20:19;99379.47;;;18.12;22.42
86402;BME280;77047;51.340;9.552;2024-03-17T10:22:58;99377.38;;;17.87;21.86
86402;BME280;77047;51.340;9.552;2024-03-17T10:25:10;99373.91;;;17.83;21.80
86402;BME280;77047;51.340;9.552;2024-03-17T10:27:34;99369.36;;;18.38;21.46
86402;BME280;77047;51.340;9.552;2024-03-17T10:29:59;99365.71;;;18.94;21.15
86402;BME280;77047;51.340;9.552;2024-03-17T10:32:25;99362.17;;;18.54;20.56
86402;BME280;77047;51.340;9.552;2024-03-17T10:34:50;99369.07;;;18.67;21.15
86402;BME280;77047;51.340;9.552;2024-03-17T10:37:16;99371.23;;;18.71;21.20
86402;BME280;77047;51.340;9.552;2024-03-17T10:39:41;99367.65;;;18.54;20.93
86402;BME280;77047;51.340;9.552;2024-03-17T10:42:07;99369.10;;;18.05;21.04
86402;BME280;77047;51.340;9.552;2024-03-17T10:44:33;99375.87;;;17.72;21.82
86402;BME280;77047;51.340;9.552;2024-03-17T10:46:58;99378.11;;;17.95;21.62
86402;BME280;77047;51.340;9.552;2024-03-17T10:49:24;99380.01;;;17.82;20.47
86402;BME280;77047;51.340;9.552;2024-03-17T10:51:48;99378.58;;;17.86;21.33
86402;BME280;77047;51.340;9.552;2024-03-17T10:54:20;99379.01;;;17.59;20.77
86402;BME280;77047;51.340;9.552;2024-03-17T10:56:39;99377.61;;;17.77;21.72
86402;BME280;77047;51.340;9.552;2024-03-17T10:59:08;99379.93;;;18.41;21.78
86402;BME280;77047;51.340;9.552;2024-03-17T11:01:36;99377.83;;;18.72;21.43
86402;BME280;77047;51.340;9.552;2024-03-17T11:03:55;99376.73;;;18.76;20.85
86402;BME280;77047;51.340;9.552;2024-03-17T11:06:21;99371.82;;;18.62;20.47
86402;BME280;77047;51.340;9.552;2024-03-17T11:08:47;99366.33;;;18.60;20.19
86402;BME280;77047;51.340;9.552;2024-03-17T11:11:12;99364.81;;;19.18;20.33
86402;BME280;77047;51.340;9.552;2024-03-17T11:13:37;99360.94;;;19.49;21.01
86402;BME280;77047;51.340;9.552;2024-03-17T11:16:03;99354.33;;;19.12;20.33
86402;BME280;77047;51.340;9.552;2024-03-17T11:18:36;99350.02;;;19.44;20.55
86402;BME280;77047;51.340;9.552;2024-03-17T11:20:57;99350.28;;;19.37;20.61
86402;BME280;77047;51.340;9.552;2024-03-17T11:23:27;99347.75;;;18.85;20.19
86402;BME280;77047;51.340;9.552;2024-03-17T11:25:51;99345.74;;;18.96;20.73
86402;BME280;77047;51.340;9.552;2024-03-17T11:28:10;99345.23;;;19.29;20.43
86402;BME280;77047;51.340;9.552;2024-03-17T11:30:43;99342.43;;;19.32;19.63
86402;BME280;77047;51.340;9.552;2024-03-17T11:33:01;99341.92;;;19.30;19.94
86402;BME280;77047;51.340;9.552;2024-03-17T11:35:26;99335.67;;;19.53;19.97
86402;BME280;77047;51.340;9.552;2024-03-17T11:37:51;99327.63;;;19.81;20.12
86402;BME280;77047;51.340;9.552;2024-03-17T11:40:24;99327.64;;;19.46;20.03
86402;BME280;77047;51.340;9.552;2024-03-17T11:45:13;99325.75;;;18.94;19.37
86402;BME280;77047;51.340;9.552;2024-03-17T11:47:34;99323.65;;;19.09;19.83
86402;BME280;77047;51.340;9.552;2024-03-17T11:50:03;99327.30;;;19.55;19.77
86402;BME280;77047;51.340;9.552;2024-03-17T11:52:24;99328.09;;;19.89;19.77
86402;BME280;77047;51.340;9.552;2024-03-17T11:54:50;99332.00;;;19.23;19.55
86402;BME280;77047;51.340;9.552;2024-03-17T11:57:21;99331.96;;;20.17;20.20
86402;BME280;77047;51.340;9.552;2024-03-17T11:59:44;99329.22;;;20.47;19.94
86402;BME280;77047;51.340;9.552;2024-03-17T12:02:16;99327.02;;;20.32;19.12
86402;BME280;77047;51.340;9.552;2024-03-17T12:04:31;99319.47;;;20.17;19.05
86402;BME280;77047;51.340;9.552;2024-03-17T12:06:57;99317.59;;;20.30;19.22
86402;BME280;77047;51.340;9.552;2024-03-17T12:09:23;99312.06;;;19.75;19.20
86402;BME280;77047;51.340;9.552;2024-03-17T12:11:47;99303.67;;;18.97;19.65
86402;BME280;77047;51.340;9.552;2024-03-17T12:14:16;99297.79;;;19.21;19.94
86402;BME280;77047;51.340;9.552;2024-03-17T12:16:37;99294.64;;;19.59;19.66
86402;BME280;77047;51.340;9.552;2024-03-17T12:19:06;99295.48;;;19.45;19.63
86402;BME280;77047;51.340;9.552;2024-03-17T12:21:28;99297.28;;;19.18;19.69
86402;BME280;77047;51.340;9.552;2024-03-17T12:23:53;99295.92;;;18.97;19.86
86402;BME280;77047;51.340;9.552;2024-03-17T12:26:19;99290.15;;;19.06;20.03
86402;BME280;77047;51.340;9.552;2024-03-17T12:28:46;99290.51;;;18.70;20.55
86402;BME280;77047;51.340;9.552;2024-03-17T12:31:10;99289.01;;;19.09;20.22
86402;BME280;77047;51.340;9.552;2024-03-17T12:33:35;99285.97;;;18.46;20.52
86402;BME280;77047;51.340;9.552;2024-03-17T12:36:01;99291.94;;;18.62;20.37
86402;BME280;77047;51.340;9.552;2024-03-17T12:38:26;99294.61;;;19.24;20.31
86402;BME280;77047;51.340;9.552;2024-03-17T12:40:52;99292.62;;;19.57;20.18
86402;BME280;77047;51.340;9.552;2024-03-17T12:43:17;99289.62;;;18.91;19.42
86402;BME280;77047;51.340;9.552;2024-03-17T12:45:43;99289.49;;;18.75;20.11
86402;BME280;77047;51.340;9.552;2024-03-17T12:48:13;99284.83;;;18.95;20.52
86402;BME280;77047;51.340;9.552;2024-03-17T12:50:34;99283.69;;;19.26;19.80
86402;BME280;77047;51.340;9.552;2024-03-17T12:52:59;99277.62;;;19.90;19.81
86402;BME280;77047;51.340;9.552;2024-03-17T12:55:25;99277.26;;;19.54;20.31
86402;BME280;77047;51.340;9.552;2024-03-17T12:57:51;99267.68;;;19.45;18.93
86402;BME280;77047;51.340;9.552;2024-03-17T13:00:23;99263.15;;;19.14;19.51
86402;BME280;77047;51.340;9.552;2024-03-17T13:02:43;99263.39;;;19.34;19.86
86402;BME280;77047;51.340;9.552;2024-03-17T13:05:10;99266.73;;;19.15;19.75